まあ、Z50でこれ使ったりしないからいいけど

■使用できないレンズおよびアクセサリー

このマウントアダプターに下記のレンズおよびアクセサリーは使用できません。無理に装着しようとすると、マウントアダプターやレンズが破損する恐れがありますのでご注意ください。下記レンズ以外でも、個体の状態によっては装着できないことがあります。装着時にきつく感じる場合などは、無理に装着しないでください。

NIKKOR-Q Auto 13.5cm f/3.5(135mm f/3.5)(No.752999 以前の製品)

程なくランチェンかな
部活回避するか

そして明日の昼頃までwind230

TAF RJBB 112310Z 1200/1306 23007KT 9999 FEW025 SCT050

関空まだ06で飛んでるけどそこそこTailwindなのでは?

RJBB 120000Z 25006KT 9999 FEW030 BKN/// 27/25 Q1015 NOSIG

洗濯干してきますわ

ところで横田はCLRなので全天に雲なしですな
暑そう...

今日の流星群は微妙かなぁ...

RJTY 横田飛行場
112256Z 8/11 22:56 (UTC)
AUTO 自動観測
06003KT 60度、3knotの風
10SM CLR 10マイル視程
31/25 気温31℃.露点25℃
A2997 海面更正気圧2997インチ

横田のはアメリカ式だから難しい

METAR というか気象通報式は気象庁のサイトで公開されています
jma.go.jp/jma/kishou/books/tsu

という訳で、外で写真撮る人はMETAR読めるといいかもしれません

空港の近く限定ですがw

羽田は気にならない程度の雲が3000ft

FEW030 雲量1/8~1/4が3000ft

RMK
1CU030 1/8の雲が3000ft

一方羽田は
RJTT 112330Z 20011KT 9999 FEW030 31/26 Q1012 NOSIG RMK 1CU030 A2991

つまり、地表に近い所に結構雲ある

FEW020 2000ftに1/8~1/4の雲
SCT040 4000ftに3/8~1/2の雲
BKN/// 全天5/8~7/8の雲はなし

RMK 注釈
2CU020 2000ftの雲は1/4で積雲
3CU040 4000ftの雲は3/8で積雲

伊丹はやっぱり雲出てますな

RJOO 112336Z VRB02KT 9999 FEW020 SCT040 BKN/// 32/26 Q1015 RMK 2CU020 3CU040 A2999

たこすさん本州に戻ってきてる

Show more
hikoukidon

個人運用サーバです。 Private server.